sensor_id;sensor_type;location;lat;lon;timestamp;temperature;humidity
47606;DHT22;55448;51.330;4.946;2022-09-16T00:00:12;13.40;99.90
47606;DHT22;55448;51.330;4.946;2022-09-16T00:02:37;13.50;99.90
47606;DHT22;55448;51.330;4.946;2022-09-16T00:05:03;13.50;99.90
47606;DHT22;55448;51.330;4.946;2022-09-16T00:07:29;13.40;99.90
47606;DHT22;55448;51.330;4.946;2022-09-16T00:09:54;13.50;99.90
47606;DHT22;55448;51.330;4.946;2022-09-16T00:12:20;13.50;99.90
47606;DHT22;55448;51.330;4.946;2022-09-16T00:14:46;13.40;99.90
47606;DHT22;55448;51.330;4.946;2022-09-16T00:17:11;13.40;99.90
47606;DHT22;55448;51.330;4.946;2022-09-16T00:19:37;13.30;99.90
47606;DHT22;55448;51.330;4.946;2022-09-16T00:22:03;13.30;99.90
47606;DHT22;55448;51.330;4.946;2022-09-16T00:24:28;13.30;99.90
47606;DHT22;55448;51.330;4.946;2022-09-16T00:26:54;13.20;99.90
47606;DHT22;55448;51.330;4.946;2022-09-16T00:29:20;13.20;99.90
47606;DHT22;55448;51.330;4.946;2022-09-16T00:31:45;13.10;99.90
47606;DHT22;55448;51.330;4.946;2022-09-16T00:34:11;13.10;99.90
47606;DHT22;55448;51.330;4.946;2022-09-16T00:36:36;13.00;99.90
47606;DHT22;55448;51.330;4.946;2022-09-16T00:39:02;13.00;99.90
47606;DHT22;55448;51.330;4.946;2022-09-16T00:41:28;13.10;99.90
47606;DHT22;55448;51.330;4.946;2022-09-16T00:43:58;13.00;99.90
47606;DHT22;55448;51.330;4.946;2022-09-16T00:46:26;12.90;99.90
47606;DHT22;55448;51.330;4.946;2022-09-16T00:48:54;12.90;99.90
47606;DHT22;55448;51.330;4.946;2022-09-16T00:51:20;12.80;99.90
47606;DHT22;55448;51.330;4.946;2022-09-16T00:53:48;12.80;99.90
47606;DHT22;55448;51.330;4.946;2022-09-16T00:56:16;12.70;99.90
47606;DHT22;55448;51.330;4.946;2022-09-16T00:58:50;12.70;99.90
47606;DHT22;55448;51.330;4.946;2022-09-16T01:01:18;12.70;99.90
47606;DHT22;55448;51.330;4.946;2022-09-16T01:03:45;12.70;99.90
47606;DHT22;55448;51.330;4.946;2022-09-16T01:06:11;12.70;99.90
47606;DHT22;55448;51.330;4.946;2022-09-16T01:08:39;12.60;99.90
47606;DHT22;55448;51.330;4.946;2022-09-16T01:11:04;12.70;99.90
47606;DHT22;55448;51.330;4.946;2022-09-16T01:13:30;12.70;99.90
47606;DHT22;55448;51.330;4.946;2022-09-16T01:36:53;12.60;99.90
47606;DHT22;55448;51.330;4.946;2022-09-16T01:44:52;12.40;99.90
47606;DHT22;55448;51.330;4.946;2022-09-16T01:47:21;12.40;99.90
47606;DHT22;55448;51.330;4.946;2022-09-16T01:52:23;12.30;99.90
47606;DHT22;55448;51.330;4.946;2022-09-16T01:55:09;12.30;99.90
47606;DHT22;55448;51.330;4.946;2022-09-16T01:57:51;12.40;99.90
47606;DHT22;55448;51.330;4.946;2022-09-16T02:00:17;12.30;99.90
47606;DHT22;55448;51.330;4.946;2022-09-16T02:05:32;12.20;99.90
47606;DHT22;55448;51.330;4.946;2022-09-16T02:08:08;12.20;99.90
47606;DHT22;55448;51.330;4.946;2022-09-16T02:10:45;12.30;99.90
47606;DHT22;55448;51.330;4.946;2022-09-16T02:13:19;12.20;99.90
47606;DHT22;55448;51.330;4.946;2022-09-16T02:15:47;12.20;99.90
47606;DHT22;55448;51.330;4.946;2022-09-16T02:18:14;12.20;99.90
47606;DHT22;55448;51.330;4.946;2022-09-16T02:20:44;12.20;99.90
47606;DHT22;55448;51.330;4.946;2022-09-16T02:23:23;12.20;99.90
47606;DHT22;55448;51.330;4.946;2022-09-16T02:25:49;12.30;99.90
47606;DHT22;55448;51.330;4.946;2022-09-16T02:28:19;12.30;99.90
47606;DHT22;55448;51.330;4.946;2022-09-16T02:30:48;12.30;99.90
47606;DHT22;55448;51.330;4.946;2022-09-16T02:33:15;12.10;99.90
47606;DHT22;55448;51.330;4.946;2022-09-16T02:35:41;12.20;99.90
47606;DHT22;55448;51.330;4.946;2022-09-16T02:38:10;12.30;99.90
47606;DHT22;55448;51.330;4.946;2022-09-16T02:40:49;12.20;99.90
47606;DHT22;55448;51.330;4.946;2022-09-16T02:43:16;12.20;99.90
47606;DHT22;55448;51.330;4.946;2022-09-16T02:45:46;12.20;99.90
47606;DHT22;55448;51.330;4.946;2022-09-16T02:48:26;12.20;99.90
47606;DHT22;55448;51.330;4.946;2022-09-16T02:50:58;12.20;99.90
47606;DHT22;55448;51.330;4.946;2022-09-16T02:53:47;12.20;99.90
47606;DHT22;55448;51.330;4.946;2022-09-16T02:56:16;12.20;99.90
47606;DHT22;55448;51.330;4.946;2022-09-16T02:58:45;12.30;99.90
47606;DHT22;55448;51.330;4.946;2022-09-16T03:01:10;12.30;99.90
47606;DHT22;55448;51.330;4.946;2022-09-16T03:03:37;12.30;99.90
47606;DHT22;55448;51.330;4.946;2022-09-16T03:08:32;12.20;99.90
47606;DHT22;55448;51.330;4.946;2022-09-16T03:10:59;12.30;99.90
47606;DHT22;55448;51.330;4.946;2022-09-16T03:13:29;12.30;99.90
47606;DHT22;55448;51.330;4.946;2022-09-16T03:16:00;12.30;99.90
47606;DHT22;55448;51.330;4.946;2022-09-16T03:18:35;12.20;99.90
47606;DHT22;55448;51.330;4.946;2022-09-16T03:26:14;12.20;99.90
47606;DHT22;55448;51.330;4.946;2022-09-16T03:28:46;12.30;99.90
47606;DHT22;55448;51.330;4.946;2022-09-16T03:34:11;12.40;99.90
47606;DHT22;55448;51.330;4.946;2022-09-16T03:36:42;12.50;99.90
47606;DHT22;55448;51.330;4.946;2022-09-16T03:39:08;12.50;99.90
47606;DHT22;55448;51.330;4.946;2022-09-16T03:41:35;12.40;99.90
47606;DHT22;55448;51.330;4.946;2022-09-16T03:44:01;12.40;99.90
47606;DHT22;55448;51.330;4.946;2022-09-16T03:46:26;12.40;99.90
47606;DHT22;55448;51.330;4.946;2022-09-16T03:48:56;12.40;99.90
47606;DHT22;55448;51.330;4.946;2022-09-16T03:51:22;12.40;99.90
47606;DHT22;55448;51.330;4.946;2022-09-16T03:53:49;12.30;99.90
47606;DHT22;55448;51.330;4.946;2022-09-16T03:56:14;12.30;99.90
47606;DHT22;55448;51.330;4.946;2022-09-16T03:58:40;12.40;99.90
47606;DHT22;55448;51.330;4.946;2022-09-16T04:01:05;12.30;99.90
47606;DHT22;55448;51.330;4.946;2022-09-16T04:03:31;12.50;99.90
47606;DHT22;55448;51.330;4.946;2022-09-16T04:05:56;12.30;99.90
47606;DHT22;55448;51.330;4.946;2022-09-16T04:08:22;12.30;99.90
47606;DHT22;55448;51.330;4.946;2022-09-16T04:13:19;12.20;99.90
47606;DHT22;55448;51.330;4.946;2022-09-16T04:15:45;12.20;99.90
47606;DHT22;55448;51.330;4.946;2022-09-16T04:18:10;12.20;99.90
47606;DHT22;55448;51.330;4.946;2022-09-16T04:20:36;12.20;99.90
47606;DHT22;55448;51.330;4.946;2022-09-16T04:23:01;12.10;99.90
47606;DHT22;55448;51.330;4.946;2022-09-16T04:25:27;12.10;99.90
47606;DHT22;55448;51.330;4.946;2022-09-16T04:27:53;12.10;99.90
47606;DHT22;55448;51.330;4.946;2022-09-16T04:30:18;12.20;99.90
47606;DHT22;55448;51.330;4.946;2022-09-16T04:32:44;12.30;99.90
47606;DHT22;55448;51.330;4.946;2022-09-16T04:35:10;12.30;99.90
47606;DHT22;55448;51.330;4.946;2022-09-16T04:37:35;12.20;99.90
47606;DHT22;55448;51.330;4.946;2022-09-16T04:40:01;12.20;99.90
47606;DHT22;55448;51.330;4.946;2022-09-16T04:42:26;12.20;99.90
47606;DHT22;55448;51.330;4.946;2022-09-16T04:44:52;12.20;99.90
47606;DHT22;55448;51.330;4.946;2022-09-16T04:47:17;12.20;99.90
47606;DHT22;55448;51.330;4.946;2022-09-16T04:49:43;12.10;99.90
47606;DHT22;55448;51.330;4.946;2022-09-16T04:52:08;12.10;99.90
47606;DHT22;55448;51.330;4.946;2022-09-16T04:54:35;12.10;99.90
47606;DHT22;55448;51.330;4.946;2022-09-16T04:57:00;12.20;99.90
47606;DHT22;55448;51.330;4.946;2022-09-16T04:59:26;12.10;99.90
47606;DHT22;55448;51.330;4.946;2022-09-16T05:01:51;12.10;99.90
47606;DHT22;55448;51.330;4.946;2022-09-16T05:04:17;12.00;99.90
47606;DHT22;55448;51.330;4.946;2022-09-16T05:06:43;12.00;99.90
47606;DHT22;55448;51.330;4.946;2022-09-16T05:09:09;12.00;99.90
47606;DHT22;55448;51.330;4.946;2022-09-16T05:11:36;12.10;99.90
47606;DHT22;55448;51.330;4.946;2022-09-16T05:14:03;12.00;99.90
47606;DHT22;55448;51.330;4.946;2022-09-16T05:16:28;12.00;99.90
47606;DHT22;55448;51.330;4.946;2022-09-16T05:18:55;12.00;99.90
47606;DHT22;55448;51.330;4.946;2022-09-16T05:21:22;12.00;99.90
47606;DHT22;55448;51.330;4.946;2022-09-16T05:23:47;12.00;99.90
47606;DHT22;55448;51.330;4.946;2022-09-16T05:26:14;12.10;99.90
47606;DHT22;55448;51.330;4.946;2022-09-16T05:28:40;12.10;99.90
47606;DHT22;55448;51.330;4.946;2022-09-16T05:31:16;12.10;99.90
47606;DHT22;55448;51.330;4.946;2022-09-16T05:33:42;12.10;99.90
47606;DHT22;55448;51.330;4.946;2022-09-16T05:36:11;12.10;99.90
47606;DHT22;55448;51.330;4.946;2022-09-16T05:38:36;12.10;99.90
47606;DHT22;55448;51.330;4.946;2022-09-16T05:41:03;12.10;99.90
47606;DHT22;55448;51.330;4.946;2022-09-16T05:43:28;12.10;99.90
47606;DHT22;55448;51.330;4.946;2022-09-16T05:45:54;12.20;99.90
47606;DHT22;55448;51.330;4.946;2022-09-16T05:48:20;12.20;99.90
47606;DHT22;55448;51.330;4.946;2022-09-16T05:50:53;12.20;99.90
47606;DHT22;55448;51.330;4.946;2022-09-16T05:53:19;12.20;99.90
47606;DHT22;55448;51.330;4.946;2022-09-16T05:55:58;12.20;99.90
47606;DHT22;55448;51.330;4.946;2022-09-16T05:58:25;12.40;99.90
47606;DHT22;55448;51.330;4.946;2022-09-16T06:00:50;12.40;99.90
47606;DHT22;55448;51.330;4.946;2022-09-16T06:03:16;12.40;99.90
47606;DHT22;55448;51.330;4.946;2022-09-16T06:05:42;12.40;99.90
47606;DHT22;55448;51.330;4.946;2022-09-16T06:08:08;12.40;99.90
47606;DHT22;55448;51.330;4.946;2022-09-16T06:10:37;12.40;99.90
47606;DHT22;55448;51.330;4.946;2022-09-16T06:13:03;12.40;99.90
47606;DHT22;55448;51.330;4.946;2022-09-16T06:15:28;12.50;99.90
47606;DHT22;55448;51.330;4.946;2022-09-16T06:17:54;12.50;99.90
47606;DHT22;55448;51.330;4.946;2022-09-16T06:20:19;12.50;99.90
47606;DHT22;55448;51.330;4.946;2022-09-16T06:22:45;12.60;99.90
47606;DHT22;55448;51.330;4.946;2022-09-16T06:25:10;12.60;99.90
47606;DHT22;55448;51.330;4.946;2022-09-16T06:27:36;12.60;99.90
47606;DHT22;55448;51.330;4.946;2022-09-16T06:30:02;12.60;99.90
47606;DHT22;55448;51.330;4.946;2022-09-16T06:32:29;12.50;99.90
47606;DHT22;55448;51.330;4.946;2022-09-16T06:34:55;12.60;99.90
47606;DHT22;55448;51.330;4.946;2022-09-16T06:37:20;12.50;99.90
47606;DHT22;55448;51.330;4.946;2022-09-16T06:39:46;12.50;99.90
47606;DHT22;55448;51.330;4.946;2022-09-16T06:42:11;12.70;99.90
47606;DHT22;55448;51.330;4.946;2022-09-16T06:44:37;12.50;99.90
47606;DHT22;55448;51.330;4.946;2022-09-16T06:47:02;12.60;99.90
47606;DHT22;55448;51.330;4.946;2022-09-16T06:49:28;12.60;99.90
47606;DHT22;55448;51.330;4.946;2022-09-16T06:51:53;12.70;99.90
47606;DHT22;55448;51.330;4.946;2022-09-16T06:54:19;12.80;99.90
47606;DHT22;55448;51.330;4.946;2022-09-16T06:56:44;12.80;99.90
47606;DHT22;55448;51.330;4.946;2022-09-16T06:59:10;12.80;99.90
47606;DHT22;55448;51.330;4.946;2022-09-16T07:01:38;12.70;99.90
47606;DHT22;55448;51.330;4.946;2022-09-16T07:04:05;12.70;99.90
47606;DHT22;55448;51.330;4.946;2022-09-16T07:06:32;12.80;99.90
47606;DHT22;55448;51.330;4.946;2022-09-16T07:08:58;12.80;99.90
47606;DHT22;55448;51.330;4.946;2022-09-16T07:11:24;12.80;99.90
47606;DHT22;55448;51.330;4.946;2022-09-16T07:13:50;12.80;99.90
47606;DHT22;55448;51.330;4.946;2022-09-16T07:16:20;12.90;99.90
47606;DHT22;55448;51.330;4.946;2022-09-16T07:18:46;13.00;99.90
47606;DHT22;55448;51.330;4.946;2022-09-16T07:21:16;13.10;99.90
47606;DHT22;55448;51.330;4.946;2022-09-16T07:23:42;13.00;99.90
47606;DHT22;55448;51.330;4.946;2022-09-16T07:26:15;12.90;99.90
47606;DHT22;55448;51.330;4.946;2022-09-16T07:28:41;12.80;99.90
47606;DHT22;55448;51.330;4.946;2022-09-16T07:31:10;12.70;99.90
47606;DHT22;55448;51.330;4.946;2022-09-16T07:33:36;12.70;99.90
47606;DHT22;55448;51.330;4.946;2022-09-16T07:36:03;12.70;99.90
47606;DHT22;55448;51.330;4.946;2022-09-16T07:38:29;12.70;99.90
47606;DHT22;55448;51.330;4.946;2022-09-16T07:40:55;12.90;99.90
47606;DHT22;55448;51.330;4.946;2022-09-16T07:43:21;13.10;99.90
47606;DHT22;55448;51.330;4.946;2022-09-16T07:45:53;13.40;99.90
47606;DHT22;55448;51.330;4.946;2022-09-16T07:48:19;13.70;99.90
47606;DHT22;55448;51.330;4.946;2022-09-16T07:50:52;13.60;99.90
47606;DHT22;55448;51.330;4.946;2022-09-16T07:53:18;13.60;99.90
47606;DHT22;55448;51.330;4.946;2022-09-16T07:55:44;13.70;99.90
47606;DHT22;55448;51.330;4.946;2022-09-16T07:58:09;13.70;99.90
47606;DHT22;55448;51.330;4.946;2022-09-16T08:00:35;14.10;99.90
47606;DHT22;55448;51.330;4.946;2022-09-16T08:03:00;14.30;99.90
47606;DHT22;55448;51.330;4.946;2022-09-16T08:05:26;14.30;99.90
47606;DHT22;55448;51.330;4.946;2022-09-16T08:07:51;14.00;99.90
47606;DHT22;55448;51.330;4.946;2022-09-16T08:10:17;14.00;99.90
47606;DHT22;55448;51.330;4.946;2022-09-16T08:12:45;14.00;99.90
47606;DHT22;55448;51.330;4.946;2022-09-16T08:15:11;14.10;99.90
47606;DHT22;55448;51.330;4.946;2022-09-16T08:17:36;14.20;99.90
47606;DHT22;55448;51.330;4.946;2022-09-16T08:20:02;14.30;99.90
47606;DHT22;55448;51.330;4.946;2022-09-16T08:22:28;14.50;99.90
47606;DHT22;55448;51.330;4.946;2022-09-16T08:24:54;14.70;99.90
47606;DHT22;55448;51.330;4.946;2022-09-16T08:27:19;14.60;99.90
47606;DHT22;55448;51.330;4.946;2022-09-16T08:29:45;14.60;99.90
47606;DHT22;55448;51.330;4.946;2022-09-16T08:32:10;14.80;99.90
47606;DHT22;55448;51.330;4.946;2022-09-16T08:34:37;14.70;99.90
47606;DHT22;55448;51.330;4.946;2022-09-16T08:37:02;14.70;99.90
47606;DHT22;55448;51.330;4.946;2022-09-16T08:39:28;14.70;99.90
47606;DHT22;55448;51.330;4.946;2022-09-16T08:52:02;14.20;99.90
47606;DHT22;55448;51.330;4.946;2022-09-16T08:54:34;14.60;99.90
47606;DHT22;55448;51.330;4.946;2022-09-16T08:57:02;15.10;99.90
47606;DHT22;55448;51.330;4.946;2022-09-16T08:59:31;15.30;99.90
47606;DHT22;55448;51.330;4.946;2022-09-16T09:04:28;16.00;99.90
47606;DHT22;55448;51.330;4.946;2022-09-16T09:14:57;15.70;99.90
47606;DHT22;55448;51.330;4.946;2022-09-16T09:17:28;15.40;99.90
47606;DHT22;55448;51.330;4.946;2022-09-16T09:19:59;16.20;99.90
47606;DHT22;55448;51.330;4.946;2022-09-16T09:27:30;16.80;99.90
47606;DHT22;55448;51.330;4.946;2022-09-16T09:42:24;16.50;99.90
47606;DHT22;55448;51.330;4.946;2022-09-16T09:44:57;16.60;99.90
47606;DHT22;55448;51.330;4.946;2022-09-16T09:47:27;16.50;99.90
47606;DHT22;55448;51.330;4.946;2022-09-16T09:49:55;16.40;99.90
47606;DHT22;55448;51.330;4.946;2022-09-16T09:52:29;16.50;99.90
47606;DHT22;55448;51.330;4.946;2022-09-16T09:54:58;16.40;99.90
47606;DHT22;55448;51.330;4.946;2022-09-16T09:57:32;16.20;99.90
47606;DHT22;55448;51.330;4.946;2022-09-16T10:00:04;16.30;99.90
47606;DHT22;55448;51.330;4.946;2022-09-16T10:02:35;16.40;99.90
47606;DHT22;55448;51.330;4.946;2022-09-16T10:05:03;16.80;99.90
47606;DHT22;55448;51.330;4.946;2022-09-16T10:07:29;17.10;99.90
47606;DHT22;55448;51.330;4.946;2022-09-16T10:10:02;17.10;99.90
47606;DHT22;55448;51.330;4.946;2022-09-16T10:12:32;16.80;99.90
47606;DHT22;55448;51.330;4.946;2022-09-16T10:14:58;16.70;99.90
47606;DHT22;55448;51.330;4.946;2022-09-16T10:17:24;16.60;99.90
47606;DHT22;55448;51.330;4.946;2022-09-16T10:22:24;16.40;99.90
47606;DHT22;55448;51.330;4.946;2022-09-16T10:24:55;16.60;99.90
47606;DHT22;55448;51.330;4.946;2022-09-16T10:27:30;16.30;99.90
47606;DHT22;55448;51.330;4.946;2022-09-16T10:32:28;15.40;99.90
47606;DHT22;55448;51.330;4.946;2022-09-16T10:34:54;14.70;99.90
47606;DHT22;55448;51.330;4.946;2022-09-16T10:37:20;14.10;99.90
47606;DHT22;55448;51.330;4.946;2022-09-16T10:39:53;14.00;99.90
47606;DHT22;55448;51.330;4.946;2022-09-16T10:42:28;14.30;99.90
47606;DHT22;55448;51.330;4.946;2022-09-16T10:44:55;14.40;99.90
47606;DHT22;55448;51.330;4.946;2022-09-16T10:47:25;14.80;99.90
47606;DHT22;55448;51.330;4.946;2022-09-16T10:50:02;15.00;99.90
47606;DHT22;55448;51.330;4.946;2022-09-16T10:52:30;15.00;99.90
47606;DHT22;55448;51.330;4.946;2022-09-16T10:54:56;15.20;99.90
47606;DHT22;55448;51.330;4.946;2022-09-16T11:00:10;15.30;99.90
47606;DHT22;55448;51.330;4.946;2022-09-16T11:02:41;15.40;99.90
47606;DHT22;55448;51.330;4.946;2022-09-16T11:05:11;15.40;99.90
47606;DHT22;55448;51.330;4.946;2022-09-16T11:10:09;16.20;99.90
47606;DHT22;55448;51.330;4.946;2022-09-16T11:28:24;15.70;99.90
47606;DHT22;55448;51.330;4.946;2022-09-16T11:33:34;13.10;99.90
47606;DHT22;55448;51.330;4.946;2022-09-16T11:38:46;11.90;99.90
47606;DHT22;55448;51.330;4.946;2022-09-16T11:41:29;11.90;99.90
47606;DHT22;55448;51.330;4.946;2022-09-16T11:46:31;11.40;99.90
47606;DHT22;55448;51.330;4.946;2022-09-16T11:49:20;11.30;99.90
47606;DHT22;55448;51.330;4.946;2022-09-16T11:54:39;11.20;99.90
47606;DHT22;55448;51.330;4.946;2022-09-16T11:57:09;11.50;99.90
47606;DHT22;55448;51.330;4.946;2022-09-16T11:59:38;11.70;99.90
47606;DHT22;55448;51.330;4.946;2022-09-16T12:04:52;11.90;99.90
47606;DHT22;55448;51.330;4.946;2022-09-16T12:09:47;12.80;99.90
47606;DHT22;55448;51.330;4.946;2022-09-16T12:12:58;12.80;99.90
47606;DHT22;55448;51.330;4.946;2022-09-16T12:15:04;12.90;99.90
47606;DHT22;55448;51.330;4.946;2022-09-16T12:17:35;13.10;99.90
47606;DHT22;55448;51.330;4.946;2022-09-16T12:25:02;13.50;99.90
47606;DHT22;55448;51.330;4.946;2022-09-16T12:27:34;13.80;99.90
47606;DHT22;55448;51.330;4.946;2022-09-16T12:35:02;14.70;99.90
47606;DHT22;55448;51.330;4.946;2022-09-16T12:37:51;14.70;99.90
47606;DHT22;55448;51.330;4.946;2022-09-16T12:40:26;15.00;99.90
47606;DHT22;55448;51.330;4.946;2022-09-16T12:45:37;15.10;99.90
47606;DHT22;55448;51.330;4.946;2022-09-16T12:50:46;15.90;99.90
47606;DHT22;55448;51.330;4.946;2022-09-16T13:01:02;15.40;99.90
47606;DHT22;55448;51.330;4.946;2022-09-16T13:03:31;15.30;99.90
47606;DHT22;55448;51.330;4.946;2022-09-16T13:05:59;15.40;99.90
47606;DHT22;55448;51.330;4.946;2022-09-16T13:08:25;15.70;99.90
47606;DHT22;55448;51.330;4.946;2022-09-16T13:11:01;15.70;99.90
47606;DHT22;55448;51.330;4.946;2022-09-16T13:13:33;15.80;99.90
47606;DHT22;55448;51.330;4.946;2022-09-16T13:16:00;15.90;99.90
47606;DHT22;55448;51.330;4.946;2022-09-16T13:18:37;15.80;99.90
47606;DHT22;55448;51.330;4.946;2022-09-16T13:21:22;15.90;99.90
47606;DHT22;55448;51.330;4.946;2022-09-16T13:23:56;16.20;99.90
47606;DHT22;55448;51.330;4.946;2022-09-16T13:26:24;16.30;99.90
47606;DHT22;55448;51.330;4.946;2022-09-16T13:28:49;16.50;99.90
47606;DHT22;55448;51.330;4.946;2022-09-16T13:31:16;16.50;99.90
47606;DHT22;55448;51.330;4.946;2022-09-16T13:36:13;16.20;99.90
47606;DHT22;55448;51.330;4.946;2022-09-16T13:38:40;16.40;99.90
47606;DHT22;55448;51.330;4.946;2022-09-16T13:41:08;16.80;99.90
47606;DHT22;55448;51.330;4.946;2022-09-16T13:46:09;17.30;99.90
47606;DHT22;55448;51.330;4.946;2022-09-16T13:48:38;17.20;99.90
47606;DHT22;55448;51.330;4.946;2022-09-16T13:51:06;16.80;99.90
47606;DHT22;55448;51.330;4.946;2022-09-16T13:53:32;16.60;99.90
47606;DHT22;55448;51.330;4.946;2022-09-16T13:56:01;16.20;99.90
47606;DHT22;55448;51.330;4.946;2022-09-16T13:58:30;16.20;99.90
47606;DHT22;55448;51.330;4.946;2022-09-16T14:01:02;15.70;99.90
47606;DHT22;55448;51.330;4.946;2022-09-16T14:13:56;13.30;99.90
47606;DHT22;55448;51.330;4.946;2022-09-16T14:16:26;13.50;99.90
47606;DHT22;55448;51.330;4.946;2022-09-16T14:19:15;13.20;99.90
47606;DHT22;55448;51.330;4.946;2022-09-16T14:21:43;13.10;99.90
47606;DHT22;55448;51.330;4.946;2022-09-16T14:26:37;13.00;99.90
47606;DHT22;55448;51.330;4.946;2022-09-16T14:29:03;12.90;99.90
47606;DHT22;55448;51.330;4.946;2022-09-16T14:31:29;13.00;99.90
47606;DHT22;55448;51.330;4.946;2022-09-16T14:33:56;13.00;99.90
47606;DHT22;55448;51.330;4.946;2022-09-16T14:36:30;13.20;99.90
47606;DHT22;55448;51.330;4.946;2022-09-16T14:41:27;13.70;99.90
47606;DHT22;55448;51.330;4.946;2022-09-16T14:43:54;13.90;99.90
47606;DHT22;55448;51.330;4.946;2022-09-16T14:46:20;13.70;99.90
47606;DHT22;55448;51.330;4.946;2022-09-16T14:48:46;13.50;99.90
47606;DHT22;55448;51.330;4.946;2022-09-16T14:51:22;13.30;99.90
47606;DHT22;55448;51.330;4.946;2022-09-16T14:53:52;13.10;99.90
47606;DHT22;55448;51.330;4.946;2022-09-16T14:56:18;13.00;99.90
47606;DHT22;55448;51.330;4.946;2022-09-16T14:58:46;13.00;99.90
47606;DHT22;55448;51.330;4.946;2022-09-16T15:01:17;13.00;99.90
47606;DHT22;55448;51.330;4.946;2022-09-16T15:06:14;12.90;99.90
47606;DHT22;55448;51.330;4.946;2022-09-16T15:08:45;12.90;99.90
47606;DHT22;55448;51.330;4.946;2022-09-16T15:11:12;13.10;99.90
47606;DHT22;55448;51.330;4.946;2022-09-16T15:13:39;13.20;99.90
47606;DHT22;55448;51.330;4.946;2022-09-16T15:18:35;13.50;99.90
47606;DHT22;55448;51.330;4.946;2022-09-16T15:23:57;13.90;99.90
47606;DHT22;55448;51.330;4.946;2022-09-16T15:26:24;13.90;99.90
47606;DHT22;55448;51.330;4.946;2022-09-16T15:31:26;13.60;99.90
47606;DHT22;55448;51.330;4.946;2022-09-16T15:33:52;13.60;99.90
47606;DHT22;55448;51.330;4.946;2022-09-16T15:36:31;13.60;99.90
47606;DHT22;55448;51.330;4.946;2022-09-16T15:38:57;14.20;99.90
47606;DHT22;55448;51.330;4.946;2022-09-16T15:41:23;14.60;99.90
47606;DHT22;55448;51.330;4.946;2022-09-16T15:43:49;15.10;99.90
47606;DHT22;55448;51.330;4.946;2022-09-16T15:46:16;15.20;99.90
47606;DHT22;55448;51.330;4.946;2022-09-16T15:48:45;15.50;99.90
47606;DHT22;55448;51.330;4.946;2022-09-16T15:53:47;15.70;99.90
47606;DHT22;55448;51.330;4.946;2022-09-16T15:58:47;15.20;99.90
47606;DHT22;55448;51.330;4.946;2022-09-16T16:04:01;15.40;99.90
47606;DHT22;55448;51.330;4.946;2022-09-16T16:12:00;15.80;99.90
47606;DHT22;55448;51.330;4.946;2022-09-16T16:14:27;15.20;99.90
47606;DHT22;55448;51.330;4.946;2022-09-16T16:16:59;14.60;99.90
47606;DHT22;55448;51.330;4.946;2022-09-16T16:19:25;14.30;99.90
47606;DHT22;55448;51.330;4.946;2022-09-16T16:21:53;14.10;99.90
47606;DHT22;55448;51.330;4.946;2022-09-16T16:24:18;13.90;99.90
47606;DHT22;55448;51.330;4.946;2022-09-16T16:26:44;13.70;99.90
47606;DHT22;55448;51.330;4.946;2022-09-16T16:29:09;13.70;99.90
47606;DHT22;55448;51.330;4.946;2022-09-16T16:31:35;13.70;99.90
47606;DHT22;55448;51.330;4.946;2022-09-16T16:34:01;13.50;99.90
47606;DHT22;55448;51.330;4.946;2022-09-16T16:36:27;13.40;99.90
47606;DHT22;55448;51.330;4.946;2022-09-16T16:38:53;13.40;99.90
47606;DHT22;55448;51.330;4.946;2022-09-16T16:41:19;13.30;99.90
47606;DHT22;55448;51.330;4.946;2022-09-16T16:43:45;13.40;99.90
47606;DHT22;55448;51.330;4.946;2022-09-16T16:46:10;13.40;99.90
47606;DHT22;55448;51.330;4.946;2022-09-16T16:48:36;13.50;99.90
47606;DHT22;55448;51.330;4.946;2022-09-16T16:51:10;13.90;99.90
47606;DHT22;55448;51.330;4.946;2022-09-16T16:53:35;14.20;99.90
47606;DHT22;55448;51.330;4.946;2022-09-16T16:56:11;14.40;99.90
47606;DHT22;55448;51.330;4.946;2022-09-16T16:58:37;14.60;99.90
47606;DHT22;55448;51.330;4.946;2022-09-16T17:01:07;14.30;99.90
47606;DHT22;55448;51.330;4.946;2022-09-16T17:03:33;14.00;99.90
47606;DHT22;55448;51.330;4.946;2022-09-16T17:05:58;14.20;99.90
47606;DHT22;55448;51.330;4.946;2022-09-16T17:08:24;14.00;99.90
47606;DHT22;55448;51.330;4.946;2022-09-16T17:11:03;13.90;99.90
47606;DHT22;55448;51.330;4.946;2022-09-16T17:13:29;13.60;99.90
47606;DHT22;55448;51.330;4.946;2022-09-16T17:16:01;13.30;99.90
47606;DHT22;55448;51.330;4.946;2022-09-16T17:18:26;13.20;99.90
47606;DHT22;55448;51.330;4.946;2022-09-16T17:20:52;13.20;99.90
47606;DHT22;55448;51.330;4.946;2022-09-16T17:23:17;13.00;99.90
47606;DHT22;55448;51.330;4.946;2022-09-16T17:25:47;12.90;99.90
47606;DHT22;55448;51.330;4.946;2022-09-16T17:28:13;12.90;99.90
47606;DHT22;55448;51.330;4.946;2022-09-16T17:30:44;12.70;99.90
47606;DHT22;55448;51.330;4.946;2022-09-16T17:33:09;12.70;99.90
47606;DHT22;55448;51.330;4.946;2022-09-16T17:35:35;12.60;99.90
47606;DHT22;55448;51.330;4.946;2022-09-16T17:38:01;12.60;99.90
47606;DHT22;55448;51.330;4.946;2022-09-16T17:40:27;12.50;99.90
47606;DHT22;55448;51.330;4.946;2022-09-16T17:42:53;12.50;99.90
47606;DHT22;55448;51.330;4.946;2022-09-16T17:45:19;12.40;99.90
47606;DHT22;55448;51.330;4.946;2022-09-16T17:47:44;12.30;99.90
47606;DHT22;55448;51.330;4.946;2022-09-16T17:50:10;12.20;99.90
47606;DHT22;55448;51.330;4.946;2022-09-16T17:52:35;12.10;99.90
47606;DHT22;55448;51.330;4.946;2022-09-16T17:55:01;11.90;99.90
47606;DHT22;55448;51.330;4.946;2022-09-16T17:57:26;11.80;99.90
47606;DHT22;55448;51.330;4.946;2022-09-16T17:59:52;11.80;99.90
47606;DHT22;55448;51.330;4.946;2022-09-16T18:02:18;11.80;99.90
47606;DHT22;55448;51.330;4.946;2022-09-16T18:04:46;11.70;99.90
47606;DHT22;55448;51.330;4.946;2022-09-16T18:07:13;11.70;99.90
47606;DHT22;55448;51.330;4.946;2022-09-16T18:09:38;11.60;99.90
47606;DHT22;55448;51.330;4.946;2022-09-16T18:12:04;11.60;99.90
47606;DHT22;55448;51.330;4.946;2022-09-16T18:14:31;11.60;99.90
47606;DHT22;55448;51.330;4.946;2022-09-16T18:16:57;11.50;99.90
47606;DHT22;55448;51.330;4.946;2022-09-16T18:19:24;11.50;99.90
47606;DHT22;55448;51.330;4.946;2022-09-16T18:21:50;11.40;99.90
47606;DHT22;55448;51.330;4.946;2022-09-16T18:24:15;11.40;99.90
47606;DHT22;55448;51.330;4.946;2022-09-16T18:26:41;11.40;99.90
47606;DHT22;55448;51.330;4.946;2022-09-16T18:29:08;11.40;99.90
47606;DHT22;55448;51.330;4.946;2022-09-16T18:31:33;11.30;99.90
47606;DHT22;55448;51.330;4.946;2022-09-16T18:33:59;11.40;99.90
47606;DHT22;55448;51.330;4.946;2022-09-16T18:36:25;11.30;99.90
47606;DHT22;55448;51.330;4.946;2022-09-16T18:38:51;11.30;99.90
47606;DHT22;55448;51.330;4.946;2022-09-16T18:41:18;11.30;99.90
47606;DHT22;55448;51.330;4.946;2022-09-16T18:43:45;11.20;99.90
47606;DHT22;55448;51.330;4.946;2022-09-16T18:46:12;11.20;99.90